sensor_id;sensor_type;location;lat;lon;timestamp;P1;durP1;ratioP1;P2;durP2;ratioP2
33579;SDS011;19909;43.644;-79.438;2024-03-23T00:54:56;0.60;;;0.50;;
33579;SDS011;19909;43.644;-79.438;2024-03-23T00:57:22;1.27;;;0.55;;
33579;SDS011;19909;43.644;-79.438;2024-03-23T00:59:49;0.85;;;0.40;;
33579;SDS011;19909;43.644;-79.438;2024-03-23T01:02:15;0.90;;;0.55;;
33579;SDS011;19909;43.644;-79.438;2024-03-23T01:04:41;0.50;;;0.40;;
33579;SDS011;19909;43.644;-79.438;2024-03-23T01:07:07;0.55;;;0.40;;
33579;SDS011;19909;43.644;-79.438;2024-03-23T01:09:34;0.40;;;0.30;;
33579;SDS011;19909;43.644;-79.438;2024-03-23T01:12:04;0.63;;;0.43;;
33579;SDS011;19909;43.644;-79.438;2024-03-23T01:14:31;0.68;;;0.43;;
33579;SDS011;19909;43.644;-79.438;2024-03-23T01:17:01;0.68;;;0.50;;
33579;SDS011;19909;43.644;-79.438;2024-03-23T01:19:27;0.93;;;0.50;;
33579;SDS011;19909;43.644;-79.438;2024-03-23T01:21:54;0.70;;;0.40;;
33579;SDS011;19909;43.644;-79.438;2024-03-23T01:24:20;0.80;;;0.52;;
33579;SDS011;19909;43.644;-79.438;2024-03-23T01:26:46;0.60;;;0.30;;
33579;SDS011;19909;43.644;-79.438;2024-03-23T01:29:12;0.40;;;0.30;;
33579;SDS011;19909;43.644;-79.438;2024-03-23T01:31:39;0.60;;;0.32;;
33579;SDS011;19909;43.644;-79.438;2024-03-23T01:34:05;0.47;;;0.40;;
33579;SDS011;19909;43.644;-79.438;2024-03-23T01:36:31;0.55;;;0.40;;
33579;SDS011;19909;43.644;-79.438;2024-03-23T01:38:58;0.50;;;0.35;;
33579;SDS011;19909;43.644;-79.438;2024-03-23T01:41:26;0.40;;;0.25;;
33579;SDS011;19909;43.644;-79.438;2024-03-23T01:43:55;0.30;;;0.25;;
33579;SDS011;19909;43.644;-79.438;2024-03-23T01:46:22;0.82;;;0.32;;
33579;SDS011;19909;43.644;-79.438;2024-03-23T01:48:49;0.88;;;0.43;;
33579;SDS011;19909;43.644;-79.438;2024-03-23T01:51:16;1.30;;;1.00;;
33579;SDS011;19909;43.644;-79.438;2024-03-23T01:53:42;2.58;;;1.92;;
33579;SDS011;19909;43.644;-79.438;2024-03-23T01:56:08;3.05;;;2.25;;
33579;SDS011;19909;43.644;-79.438;2024-03-23T01:58:35;3.13;;;2.45;;
33579;SDS011;19909;43.644;-79.438;2024-03-23T02:01:01;2.40;;;1.67;;
33579;SDS011;19909;43.644;-79.438;2024-03-23T02:03:27;2.47;;;1.70;;
33579;SDS011;19909;43.644;-79.438;2024-03-23T02:05:54;2.03;;;1.65;;
33579;SDS011;19909;43.644;-79.438;2024-03-23T02:08:21;2.88;;;2.25;;
33579;SDS011;19909;43.644;-79.438;2024-03-23T02:10:49;1.90;;;1.70;;
33579;SDS011;19909;43.644;-79.438;2024-03-23T02:13:16;2.75;;;1.80;;
33579;SDS011;19909;43.644;-79.438;2024-03-23T02:15:45;1.95;;;1.20;;
33579;SDS011;19909;43.644;-79.438;2024-03-23T02:18:11;1.52;;;1.20;;
33579;SDS011;19909;43.644;-79.438;2024-03-23T02:20:41;1.05;;;0.65;;
33579;SDS011;19909;43.644;-79.438;2024-03-23T02:23:14;0.88;;;0.70;;
33579;SDS011;19909;43.644;-79.438;2024-03-23T02:25:41;1.15;;;0.70;;
33579;SDS011;19909;43.644;-79.438;2024-03-23T02:28:08;1.00;;;0.60;;
33579;SDS011;19909;43.644;-79.438;2024-03-23T02:30:34;0.73;;;0.60;;
33579;SDS011;19909;43.644;-79.438;2024-03-23T02:33:01;1.00;;;0.47;;
33579;SDS011;19909;43.644;-79.438;2024-03-23T02:35:27;0.88;;;0.50;;
33579;SDS011;19909;43.644;-79.438;2024-03-23T02:37:53;0.80;;;0.40;;
33579;SDS011;19909;43.644;-79.438;2024-03-23T02:40:22;1.05;;;0.38;;
33579;SDS011;19909;43.644;-79.438;2024-03-23T02:42:49;1.42;;;0.60;;
33579;SDS011;19909;43.644;-79.438;2024-03-23T02:45:16;0.70;;;0.40;;
33579;SDS011;19909;43.644;-79.438;2024-03-23T02:47:42;0.98;;;0.50;;
33579;SDS011;19909;43.644;-79.438;2024-03-23T02:50:09;0.60;;;0.43;;
33579;SDS011;19909;43.644;-79.438;2024-03-23T02:52:35;0.50;;;0.38;;
33579;SDS011;19909;43.644;-79.438;2024-03-23T02:55:04;0.60;;;0.40;;
33579;SDS011;19909;43.644;-79.438;2024-03-23T02:57:34;1.58;;;0.40;;
33579;SDS011;19909;43.644;-79.438;2024-03-23T03:00:01;0.38;;;0.30;;
33579;SDS011;19909;43.644;-79.438;2024-03-23T03:02:27;0.55;;;0.40;;
33579;SDS011;19909;43.644;-79.438;2024-03-23T03:04:53;0.40;;;0.30;;
33579;SDS011;19909;43.644;-79.438;2024-03-23T03:07:20;0.30;;;0.30;;
33579;SDS011;19909;43.644;-79.438;2024-03-23T03:09:46;0.45;;;0.20;;
33579;SDS011;19909;43.644;-79.438;2024-03-23T03:12:13;0.45;;;0.40;;
33579;SDS011;19909;43.644;-79.438;2024-03-23T03:14:43;0.50;;;0.50;;
33579;SDS011;19909;43.644;-79.438;2024-03-23T03:17:11;0.85;;;0.45;;
33579;SDS011;19909;43.644;-79.438;2024-03-23T03:19:37;0.40;;;0.32;;
33579;SDS011;19909;43.644;-79.438;2024-03-23T03:22:03;1.02;;;0.68;;
33579;SDS011;19909;43.644;-79.438;2024-03-23T03:24:30;0.75;;;0.57;;
33579;SDS011;19909;43.644;-79.438;2024-03-23T03:26:56;0.40;;;0.40;;
33579;SDS011;19909;43.644;-79.438;2024-03-23T03:29:25;1.00;;;0.60;;
33579;SDS011;19909;43.644;-79.438;2024-03-23T03:31:51;0.50;;;0.43;;
33579;SDS011;19909;43.644;-79.438;2024-03-23T03:34:17;0.68;;;0.60;;
33579;SDS011;19909;43.644;-79.438;2024-03-23T03:36:44;0.82;;;0.40;;
33579;SDS011;19909;43.644;-79.438;2024-03-23T03:39:10;0.57;;;0.40;;
33579;SDS011;19909;43.644;-79.438;2024-03-23T03:41:38;0.65;;;0.57;;
33579;SDS011;19909;43.644;-79.438;2024-03-23T03:44:04;0.90;;;0.40;;
33579;SDS011;19909;43.644;-79.438;2024-03-23T03:46:30;0.60;;;0.47;;
33579;SDS011;19909;43.644;-79.438;2024-03-23T03:48:57;0.70;;;0.50;;
33579;SDS011;19909;43.644;-79.438;2024-03-23T03:51:24;1.50;;;0.45;;
33579;SDS011;19909;43.644;-79.438;2024-03-23T03:53:51;0.75;;;0.60;;
33579;SDS011;19909;43.644;-79.438;2024-03-23T03:56:17;0.60;;;0.40;;
33579;SDS011;19909;43.644;-79.438;2024-03-23T03:58:43;0.63;;;0.30;;
33579;SDS011;19909;43.644;-79.438;2024-03-23T04:01:09;0.90;;;0.52;;
33579;SDS011;19909;43.644;-79.438;2024-03-23T04:03:36;0.82;;;0.50;;
33579;SDS011;19909;43.644;-79.438;2024-03-23T04:06:03;0.77;;;0.50;;
33579;SDS011;19909;43.644;-79.438;2024-03-23T04:08:29;0.90;;;0.50;;
33579;SDS011;19909;43.644;-79.438;2024-03-23T04:10:56;0.70;;;0.45;;
33579;SDS011;19909;43.644;-79.438;2024-03-23T04:13:22;0.43;;;0.38;;
33579;SDS011;19909;43.644;-79.438;2024-03-23T04:15:48;0.43;;;0.30;;
33579;SDS011;19909;43.644;-79.438;2024-03-23T04:18:14;0.63;;;0.50;;
33579;SDS011;19909;43.644;-79.438;2024-03-23T04:20:41;0.73;;;0.55;;
33579;SDS011;19909;43.644;-79.438;2024-03-23T04:23:07;1.10;;;0.50;;
33579;SDS011;19909;43.644;-79.438;2024-03-23T04:25:34;0.57;;;0.50;;
33579;SDS011;19909;43.644;-79.438;2024-03-23T04:28:01;0.32;;;0.30;;
33579;SDS011;19909;43.644;-79.438;2024-03-23T04:30:28;0.65;;;0.47;;
33579;SDS011;19909;43.644;-79.438;2024-03-23T04:32:54;0.35;;;0.30;;
33579;SDS011;19909;43.644;-79.438;2024-03-23T04:35:22;0.38;;;0.32;;
33579;SDS011;19909;43.644;-79.438;2024-03-23T04:37:50;0.75;;;0.38;;
33579;SDS011;19909;43.644;-79.438;2024-03-23T04:40:21;0.68;;;0.32;;
33579;SDS011;19909;43.644;-79.438;2024-03-23T04:42:47;0.22;;;0.20;;
33579;SDS011;19909;43.644;-79.438;2024-03-23T04:45:14;0.70;;;0.50;;
33579;SDS011;19909;43.644;-79.438;2024-03-23T04:47:40;0.63;;;0.40;;
33579;SDS011;19909;43.644;-79.438;2024-03-23T04:50:06;1.17;;;0.52;;
33579;SDS011;19909;43.644;-79.438;2024-03-23T04:52:33;0.50;;;0.30;;
33579;SDS011;19909;43.644;-79.438;2024-03-23T04:54:59;0.45;;;0.30;;
33579;SDS011;19909;43.644;-79.438;2024-03-23T04:57:25;0.43;;;0.30;;
33579;SDS011;19909;43.644;-79.438;2024-03-23T04:59:52;0.55;;;0.30;;
33579;SDS011;19909;43.644;-79.438;2024-03-23T05:02:18;0.70;;;0.32;;
33579;SDS011;19909;43.644;-79.438;2024-03-23T05:04:44;0.95;;;0.38;;
33579;SDS011;19909;43.644;-79.438;2024-03-23T05:07:11;0.40;;;0.30;;
33579;SDS011;19909;43.644;-79.438;2024-03-23T05:09:37;0.20;;;0.20;;
33579;SDS011;19909;43.644;-79.438;2024-03-23T05:12:03;0.28;;;0.20;;
33579;SDS011;19909;43.644;-79.438;2024-03-23T05:14:29;0.28;;;0.10;;
33579;SDS011;19909;43.644;-79.438;2024-03-23T05:16:56;0.25;;;0.15;;
33579;SDS011;19909;43.644;-79.438;2024-03-23T05:19:22;0.40;;;0.20;;
33579;SDS011;19909;43.644;-79.438;2024-03-23T05:21:48;0.10;;;0.10;;
33579;SDS011;19909;43.644;-79.438;2024-03-23T05:24:15;0.10;;;0.10;;
33579;SDS011;19909;43.644;-79.438;2024-03-23T05:26:42;0.32;;;0.25;;
33579;SDS011;19909;43.644;-79.438;2024-03-23T05:29:08;0.30;;;0.20;;
33579;SDS011;19909;43.644;-79.438;2024-03-23T05:31:38;0.63;;;0.20;;
33579;SDS011;19909;43.644;-79.438;2024-03-23T05:34:06;0.75;;;0.38;;
33579;SDS011;19909;43.644;-79.438;2024-03-23T05:36:34;0.43;;;0.25;;
33579;SDS011;19909;43.644;-79.438;2024-03-23T05:39:01;0.32;;;0.30;;
33579;SDS011;19909;43.644;-79.438;2024-03-23T05:41:27;0.63;;;0.30;;
33579;SDS011;19909;43.644;-79.438;2024-03-23T05:43:54;0.65;;;0.30;;
33579;SDS011;19909;43.644;-79.438;2024-03-23T05:46:20;0.25;;;0.20;;
33579;SDS011;19909;43.644;-79.438;2024-03-23T05:48:46;0.90;;;0.20;;
33579;SDS011;19909;43.644;-79.438;2024-03-23T05:51:13;0.22;;;0.20;;
33579;SDS011;19909;43.644;-79.438;2024-03-23T05:53:39;0.43;;;0.22;;
33579;SDS011;19909;43.644;-79.438;2024-03-23T05:56:05;0.10;;;0.10;;
33579;SDS011;19909;43.644;-79.438;2024-03-23T05:58:34;0.10;;;0.10;;
33579;SDS011;19909;43.644;-79.438;2024-03-23T06:01:01;0.63;;;0.22;;
33579;SDS011;19909;43.644;-79.438;2024-03-23T06:03:28;0.40;;;0.20;;
33579;SDS011;19909;43.644;-79.438;2024-03-23T06:05:54;0.45;;;0.20;;
33579;SDS011;19909;43.644;-79.438;2024-03-23T06:08:21;0.25;;;0.20;;
33579;SDS011;19909;43.644;-79.438;2024-03-23T06:10:48;0.50;;;0.13;;
33579;SDS011;19909;43.644;-79.438;2024-03-23T06:13:15;0.55;;;0.15;;
33579;SDS011;19909;43.644;-79.438;2024-03-23T06:15:42;0.43;;;0.20;;
33579;SDS011;19909;43.644;-79.438;2024-03-23T06:18:11;0.40;;;0.17;;
33579;SDS011;19909;43.644;-79.438;2024-03-23T06:20:37;0.28;;;0.13;;
33579;SDS011;19909;43.644;-79.438;2024-03-23T06:23:04;0.20;;;0.13;;
33579;SDS011;19909;43.644;-79.438;2024-03-23T06:25:31;0.55;;;0.20;;
33579;SDS011;19909;43.644;-79.438;2024-03-23T06:27:57;0.13;;;0.10;;
33579;SDS011;19909;43.644;-79.438;2024-03-23T06:30:26;0.10;;;0.10;;
33579;SDS011;19909;43.644;-79.438;2024-03-23T06:32:53;0.20;;;0.10;;
33579;SDS011;19909;43.644;-79.438;2024-03-23T06:35:19;0.40;;;0.10;;
33579;SDS011;19909;43.644;-79.438;2024-03-23T06:37:45;0.30;;;0.10;;
33579;SDS011;19909;43.644;-79.438;2024-03-23T06:40:11;0.20;;;0.20;;
33579;SDS011;19909;43.644;-79.438;2024-03-23T06:42:38;0.95;;;0.35;;
33579;SDS011;19909;43.644;-79.438;2024-03-23T06:45:04;0.10;;;0.10;;
33579;SDS011;19909;43.644;-79.438;2024-03-23T06:47:32;0.63;;;0.32;;
33579;SDS011;19909;43.644;-79.438;2024-03-23T06:50:02;0.20;;;0.20;;
33579;SDS011;19909;43.644;-79.438;2024-03-23T06:52:29;0.20;;;0.20;;
33579;SDS011;19909;43.644;-79.438;2024-03-23T06:54:55;0.20;;;0.20;;
33579;SDS011;19909;43.644;-79.438;2024-03-23T06:57:22;0.50;;;0.30;;
33579;SDS011;19909;43.644;-79.438;2024-03-23T06:59:48;0.40;;;0.17;;
33579;SDS011;19909;43.644;-79.438;2024-03-23T07:02:14;0.50;;;0.20;;
33579;SDS011;19909;43.644;-79.438;2024-03-23T07:04:41;0.45;;;0.15;;
33579;SDS011;19909;43.644;-79.438;2024-03-23T07:07:07;0.20;;;0.10;;
33579;SDS011;19909;43.644;-79.438;2024-03-23T07:09:34;0.80;;;0.20;;
33579;SDS011;19909;43.644;-79.438;2024-03-23T07:12:00;0.45;;;0.43;;
33579;SDS011;19909;43.644;-79.438;2024-03-23T07:14:26;0.52;;;0.25;;
33579;SDS011;19909;43.644;-79.438;2024-03-23T07:16:52;0.32;;;0.10;;
33579;SDS011;19909;43.644;-79.438;2024-03-23T07:19:19;0.22;;;0.10;;
33579;SDS011;19909;43.644;-79.438;2024-03-23T07:21:45;0.22;;;0.10;;
33579;SDS011;19909;43.644;-79.438;2024-03-23T07:24:13;0.65;;;0.20;;
33579;SDS011;19909;43.644;-79.438;2024-03-23T07:26:39;0.30;;;0.20;;
33579;SDS011;19909;43.644;-79.438;2024-03-23T07:29:06;0.30;;;0.10;;
33579;SDS011;19909;43.644;-79.438;2024-03-23T07:31:33;0.30;;;0.20;;
33579;SDS011;19909;43.644;-79.438;2024-03-23T07:34:01;0.20;;;0.20;;
33579;SDS011;19909;43.644;-79.438;2024-03-23T07:36:27;0.28;;;0.25;;
33579;SDS011;19909;43.644;-79.438;2024-03-23T07:38:54;0.88;;;0.30;;
33579;SDS011;19909;43.644;-79.438;2024-03-23T07:41:20;0.30;;;0.20;;
33579;SDS011;19909;43.644;-79.438;2024-03-23T07:43:47;0.30;;;0.10;;
33579;SDS011;19909;43.644;-79.438;2024-03-23T07:46:14;0.10;;;0.10;;
33579;SDS011;19909;43.644;-79.438;2024-03-23T07:48:54;0.38;;;0.20;;
33579;SDS011;19909;43.644;-79.438;2024-03-23T07:51:21;0.52;;;0.20;;
33579;SDS011;19909;43.644;-79.438;2024-03-23T07:53:48;0.20;;;0.20;;
33579;SDS011;19909;43.644;-79.438;2024-03-23T07:56:15;0.30;;;0.20;;
33579;SDS011;19909;43.644;-79.438;2024-03-23T07:58:44;0.52;;;0.20;;
33579;SDS011;19909;43.644;-79.438;2024-03-23T08:01:14;0.40;;;0.22;;
33579;SDS011;19909;43.644;-79.438;2024-03-23T08:03:41;0.55;;;0.22;;
33579;SDS011;19909;43.644;-79.438;2024-03-23T08:06:18;0.40;;;0.20;;
33579;SDS011;19909;43.644;-79.438;2024-03-23T08:08:50;3.30;;;0.20;;
33579;SDS011;19909;43.644;-79.438;2024-03-23T08:11:25;0.30;;;0.15;;
33579;SDS011;19909;43.644;-79.438;2024-03-23T08:13:55;0.20;;;0.20;;
33579;SDS011;19909;43.644;-79.438;2024-03-23T08:16:22;0.68;;;0.20;;
33579;SDS011;19909;43.644;-79.438;2024-03-23T08:18:52;0.10;;;0.10;;
33579;SDS011;19909;43.644;-79.438;2024-03-23T08:21:18;0.20;;;0.17;;
33579;SDS011;19909;43.644;-79.438;2024-03-23T08:23:44;0.38;;;0.20;;
33579;SDS011;19909;43.644;-79.438;2024-03-23T08:26:12;0.20;;;0.10;;
33579;SDS011;19909;43.644;-79.438;2024-03-23T08:28:41;0.10;;;0.10;;
33579;SDS011;19909;43.644;-79.438;2024-03-23T08:31:08;0.17;;;0.10;;
33579;SDS011;19909;43.644;-79.438;2024-03-23T08:33:35;0.00;;;0.00;;
33579;SDS011;19909;43.644;-79.438;2024-03-23T08:36:02;0.88;;;0.13;;
33579;SDS011;19909;43.644;-79.438;2024-03-23T08:38:29;0.35;;;0.20;;
33579;SDS011;19909;43.644;-79.438;2024-03-23T08:40:59;0.35;;;0.13;;
33579;SDS011;19909;43.644;-79.438;2024-03-23T08:43:29;0.30;;;0.10;;
33579;SDS011;19909;43.644;-79.438;2024-03-23T08:46:04;0.50;;;0.30;;
33579;SDS011;19909;43.644;-79.438;2024-03-23T08:48:32;0.57;;;0.20;;
33579;SDS011;19909;43.644;-79.438;2024-03-23T08:51:06;0.63;;;0.20;;
33579;SDS011;19909;43.644;-79.438;2024-03-23T08:53:33;0.20;;;0.20;;
33579;SDS011;19909;43.644;-79.438;2024-03-23T08:56:00;0.40;;;0.30;;
33579;SDS011;19909;43.644;-79.438;2024-03-23T08:58:28;0.45;;;0.30;;
33579;SDS011;19909;43.644;-79.438;2024-03-23T09:00:57;0.43;;;0.30;;
33579;SDS011;19909;43.644;-79.438;2024-03-23T09:03:29;0.20;;;0.10;;
33579;SDS011;19909;43.644;-79.438;2024-03-23T09:05:56;0.25;;;0.10;;
33579;SDS011;19909;43.644;-79.438;2024-03-23T09:08:23;0.10;;;0.10;;
33579;SDS011;19909;43.644;-79.438;2024-03-23T09:10:50;0.73;;;0.20;;
33579;SDS011;19909;43.644;-79.438;2024-03-23T09:13:17;0.00;;;0.00;;
33579;SDS011;19909;43.644;-79.438;2024-03-23T09:15:49;0.20;;;0.10;;
33579;SDS011;19909;43.644;-79.438;2024-03-23T09:18:21;0.57;;;0.10;;
33579;SDS011;19909;43.644;-79.438;2024-03-23T09:20:47;0.25;;;0.10;;
33579;SDS011;19909;43.644;-79.438;2024-03-23T09:23:14;0.10;;;0.00;;
33579;SDS011;19909;43.644;-79.438;2024-03-23T09:25:41;0.70;;;0.13;;
33579;SDS011;19909;43.644;-79.438;2024-03-23T09:28:07;0.10;;;0.03;;
33579;SDS011;19909;43.644;-79.438;2024-03-23T09:30:34;0.52;;;0.20;;
33579;SDS011;19909;43.644;-79.438;2024-03-23T09:33:02;0.20;;;0.10;;
33579;SDS011;19909;43.644;-79.438;2024-03-23T09:35:29;0.30;;;0.20;;
33579;SDS011;19909;43.644;-79.438;2024-03-23T09:37:55;0.20;;;0.20;;
33579;SDS011;19909;43.644;-79.438;2024-03-23T09:40:22;0.30;;;0.10;;
33579;SDS011;19909;43.644;-79.438;2024-03-23T09:42:51;0.73;;;0.28;;
33579;SDS011;19909;43.644;-79.438;2024-03-23T09:45:20;0.55;;;0.30;;
33579;SDS011;19909;43.644;-79.438;2024-03-23T09:47:51;0.22;;;0.10;;
33579;SDS011;19909;43.644;-79.438;2024-03-23T09:50:18;0.17;;;0.10;;
33579;SDS011;19909;43.644;-79.438;2024-03-23T09:52:45;0.32;;;0.10;;
33579;SDS011;19909;43.644;-79.438;2024-03-23T09:55:12;0.10;;;0.08;;
33579;SDS011;19909;43.644;-79.438;2024-03-23T09:57:39;0.20;;;0.10;;
33579;SDS011;19909;43.644;-79.438;2024-03-23T10:00:06;0.20;;;0.10;;
33579;SDS011;19909;43.644;-79.438;2024-03-23T10:02:36;0.30;;;0.28;;
33579;SDS011;19909;43.644;-79.438;2024-03-23T10:05:03;0.40;;;0.20;;
33579;SDS011;19909;43.644;-79.438;2024-03-23T10:07:31;0.60;;;0.10;;
33579;SDS011;19909;43.644;-79.438;2024-03-23T10:09:57;0.55;;;0.20;;
33579;SDS011;19909;43.644;-79.438;2024-03-23T10:12:24;0.17;;;0.13;;
33579;SDS011;19909;43.644;-79.438;2024-03-23T10:14:50;0.28;;;0.20;;
33579;SDS011;19909;43.644;-79.438;2024-03-23T10:17:20;0.57;;;0.15;;
33579;SDS011;19909;43.644;-79.438;2024-03-23T10:19:52;0.10;;;0.10;;
33579;SDS011;19909;43.644;-79.438;2024-03-23T10:22:20;0.30;;;0.15;;
33579;SDS011;19909;43.644;-79.438;2024-03-23T10:24:48;0.30;;;0.20;;
33579;SDS011;19909;43.644;-79.438;2024-03-23T10:27:19;2.22;;;0.20;;
33579;SDS011;19909;43.644;-79.438;2024-03-23T10:29:50;0.20;;;0.20;;
33579;SDS011;19909;43.644;-79.438;2024-03-23T10:32:16;0.20;;;0.20;;
33579;SDS011;19909;43.644;-79.438;2024-03-23T10:34:44;0.20;;;0.10;;
33579;SDS011;19909;43.644;-79.438;2024-03-23T10:37:10;0.47;;;0.17;;
33579;SDS011;19909;43.644;-79.438;2024-03-23T10:39:38;0.20;;;0.10;;
33579;SDS011;19909;43.644;-79.438;2024-03-23T10:42:07;0.10;;;0.10;;
33579;SDS011;19909;43.644;-79.438;2024-03-23T10:44:35;0.57;;;0.10;;
33579;SDS011;19909;43.644;-79.438;2024-03-23T10:47:04;0.60;;;0.25;;
33579;SDS011;19909;43.644;-79.438;2024-03-23T10:49:32;0.17;;;0.17;;
33579;SDS011;19909;43.644;-79.438;2024-03-23T10:52:00;0.32;;;0.30;;
33579;SDS011;19909;43.644;-79.438;2024-03-23T10:54:30;0.47;;;0.10;;
33579;SDS011;19909;43.644;-79.438;2024-03-23T10:57:02;0.15;;;0.10;;
33579;SDS011;19909;43.644;-79.438;2024-03-23T10:59:29;0.40;;;0.30;;
33579;SDS011;19909;43.644;-79.438;2024-03-23T11:01:57;0.47;;;0.20;;
33579;SDS011;19909;43.644;-79.438;2024-03-23T11:04:31;0.50;;;0.20;;
33579;SDS011;19909;43.644;-79.438;2024-03-23T11:07:28;0.40;;;0.28;;
33579;SDS011;19909;43.644;-79.438;2024-03-23T11:09:50;0.57;;;0.30;;
33579;SDS011;19909;43.644;-79.438;2024-03-23T11:17:32;0.65;;;0.10;;
33579;SDS011;19909;43.644;-79.438;2024-03-23T11:19:59;0.20;;;0.17;;
33579;SDS011;19909;43.644;-79.438;2024-03-23T11:25:18;0.30;;;0.20;;
33579;SDS011;19909;43.644;-79.438;2024-03-23T11:28:12;0.30;;;0.13;;
33579;SDS011;19909;43.644;-79.438;2024-03-23T11:30:37;0.20;;;0.10;;
33579;SDS011;19909;43.644;-79.438;2024-03-23T11:33:04;0.50;;;0.20;;
33579;SDS011;19909;43.644;-79.438;2024-03-23T11:35:34;0.13;;;0.10;;
33579;SDS011;19909;43.644;-79.438;2024-03-23T11:43:03;0.50;;;0.32;;
33579;SDS011;19909;43.644;-79.438;2024-03-23T11:45:34;0.30;;;0.10;;
33579;SDS011;19909;43.644;-79.438;2024-03-23T11:48:11;0.35;;;0.22;;
33579;SDS011;19909;43.644;-79.438;2024-03-23T11:50:40;0.47;;;0.20;;
33579;SDS011;19909;43.644;-79.438;2024-03-23T11:53:08;0.95;;;0.45;;
33579;SDS011;19909;43.644;-79.438;2024-03-23T11:58:17;0.32;;;0.20;;
33579;SDS011;19909;43.644;-79.438;2024-03-23T12:00:49;0.20;;;0.20;;
33579;SDS011;19909;43.644;-79.438;2024-03-23T12:03:24;0.25;;;0.15;;
33579;SDS011;19909;43.644;-79.438;2024-03-23T12:05:52;0.10;;;0.10;;
33579;SDS011;19909;43.644;-79.438;2024-03-23T12:08:30;0.20;;;0.10;;
33579;SDS011;19909;43.644;-79.438;2024-03-23T12:11:07;1.00;;;0.10;;
33579;SDS011;19909;43.644;-79.438;2024-03-23T12:13:35;0.75;;;0.20;;
33579;SDS011;19909;43.644;-79.438;2024-03-23T12:18:41;0.50;;;0.30;;
33579;SDS011;19909;43.644;-79.438;2024-03-23T12:21:08;0.70;;;0.20;;
33579;SDS011;19909;43.644;-79.438;2024-03-23T12:23:35;0.43;;;0.20;;
33579;SDS011;19909;43.644;-79.438;2024-03-23T12:26:04;0.40;;;0.30;;
33579;SDS011;19909;43.644;-79.438;2024-03-23T12:28:31;0.40;;;0.32;;
33579;SDS011;19909;43.644;-79.438;2024-03-23T12:30:58;1.25;;;0.40;;
33579;SDS011;19909;43.644;-79.438;2024-03-23T12:33:25;0.40;;;0.20;;
33579;SDS011;19909;43.644;-79.438;2024-03-23T12:35:51;0.50;;;0.32;;
33579;SDS011;19909;43.644;-79.438;2024-03-23T12:38:19;2.03;;;0.35;;
33579;SDS011;19909;43.644;-79.438;2024-03-23T12:40:51;3.28;;;0.47;;
33579;SDS011;19909;43.644;-79.438;2024-03-23T12:43:18;0.70;;;0.50;;
33579;SDS011;19909;43.644;-79.438;2024-03-23T12:45:48;1.23;;;0.60;;
33579;SDS011;19909;43.644;-79.438;2024-03-23T12:48:16;1.02;;;0.20;;
33579;SDS011;19909;43.644;-79.438;2024-03-23T12:50:43;0.28;;;0.17;;
33579;SDS011;19909;43.644;-79.438;2024-03-23T12:53:09;1.13;;;0.38;;
33579;SDS011;19909;43.644;-79.438;2024-03-23T12:55:39;0.47;;;0.22;;
33579;SDS011;19909;43.644;-79.438;2024-03-23T12:58:05;1.35;;;0.30;;
33579;SDS011;19909;43.644;-79.438;2024-03-23T13:00:32;0.63;;;0.30;;
33579;SDS011;19909;43.644;-79.438;2024-03-23T13:02:59;0.70;;;0.25;;
33579;SDS011;19909;43.644;-79.438;2024-03-23T13:05:25;1.15;;;0.30;;
33579;SDS011;19909;43.644;-79.438;2024-03-23T13:07:53;0.77;;;0.30;;
33579;SDS011;19909;43.644;-79.438;2024-03-23T13:10:24;0.70;;;0.35;;
33579;SDS011;19909;43.644;-79.438;2024-03-23T13:12:51;0.40;;;0.25;;
33579;SDS011;19909;43.644;-79.438;2024-03-23T13:15:18;0.30;;;0.15;;
33579;SDS011;19909;43.644;-79.438;2024-03-23T13:17:45;0.47;;;0.30;;
33579;SDS011;19909;43.644;-79.438;2024-03-23T13:20:12;0.40;;;0.22;;
33579;SDS011;19909;43.644;-79.438;2024-03-23T13:22:40;0.60;;;0.40;;
33579;SDS011;19909;43.644;-79.438;2024-03-23T13:25:07;0.50;;;0.40;;
33579;SDS011;19909;43.644;-79.438;2024-03-23T13:27:35;0.73;;;0.30;;
33579;SDS011;19909;43.644;-79.438;2024-03-23T13:30:01;0.88;;;0.43;;
33579;SDS011;19909;43.644;-79.438;2024-03-23T13:32:29;0.75;;;0.32;;
33579;SDS011;19909;43.644;-79.438;2024-03-23T13:34:55;0.63;;;0.30;;
33579;SDS011;19909;43.644;-79.438;2024-03-23T13:37:21;0.40;;;0.20;;
33579;SDS011;19909;43.644;-79.438;2024-03-23T13:39:48;0.43;;;0.30;;
33579;SDS011;19909;43.644;-79.438;2024-03-23T13:42:15;0.80;;;0.32;;
33579;SDS011;19909;43.644;-79.438;2024-03-23T13:44:41;1.38;;;0.30;;
33579;SDS011;19909;43.644;-79.438;2024-03-23T13:47:08;0.70;;;0.40;;
33579;SDS011;19909;43.644;-79.438;2024-03-23T13:49:34;0.55;;;0.30;;
33579;SDS011;19909;43.644;-79.438;2024-03-23T13:52:01;0.65;;;0.22;;
33579;SDS011;19909;43.644;-79.438;2024-03-23T13:54:27;0.68;;;0.30;;
33579;SDS011;19909;43.644;-79.438;2024-03-23T13:56:54;0.80;;;0.30;;
33579;SDS011;19909;43.644;-79.438;2024-03-23T13:59:22;0.57;;;0.32;;
33579;SDS011;19909;43.644;-79.438;2024-03-23T14:01:49;0.35;;;0.20;;
33579;SDS011;19909;43.644;-79.438;2024-03-23T14:04:17;1.55;;;0.30;;
33579;SDS011;19909;43.644;-79.438;2024-03-23T14:06:48;0.52;;;0.30;;
33579;SDS011;19909;43.644;-79.438;2024-03-23T14:09:14;0.47;;;0.20;;
33579;SDS011;19909;43.644;-79.438;2024-03-23T14:11:47;0.43;;;0.22;;
33579;SDS011;19909;43.644;-79.438;2024-03-23T14:14:16;0.35;;;0.30;;
33579;SDS011;19909;43.644;-79.438;2024-03-23T14:16:42;0.52;;;0.20;;
33579;SDS011;19909;43.644;-79.438;2024-03-23T14:19:09;1.40;;;0.38;;
33579;SDS011;19909;43.644;-79.438;2024-03-23T14:21:35;0.40;;;0.20;;
33579;SDS011;19909;43.644;-79.438;2024-03-23T14:24:02;0.40;;;0.20;;
33579;SDS011;19909;43.644;-79.438;2024-03-23T14:26:29;1.38;;;0.40;;
33579;SDS011;19909;43.644;-79.438;2024-03-23T14:28:55;0.57;;;0.30;;
33579;SDS011;19909;43.644;-79.438;2024-03-23T14:31:21;0.52;;;0.30;;
33579;SDS011;19909;43.644;-79.438;2024-03-23T14:33:48;1.05;;;0.30;;
33579;SDS011;19909;43.644;-79.438;2024-03-23T14:36:15;2.13;;;0.73;;
33579;SDS011;19909;43.644;-79.438;2024-03-23T14:38:49;0.95;;;0.47;;
33579;SDS011;19909;43.644;-79.438;2024-03-23T14:43:41;0.22;;;0.17;;
33579;SDS011;19909;43.644;-79.438;2024-03-23T14:46:16;0.40;;;0.30;;
33579;SDS011;19909;43.644;-79.438;2024-03-23T14:48:45;0.45;;;0.28;;
33579;SDS011;19909;43.644;-79.438;2024-03-23T14:51:12;0.65;;;0.30;;
33579;SDS011;19909;43.644;-79.438;2024-03-23T14:53:39;1.73;;;0.30;;
33579;SDS011;19909;43.644;-79.438;2024-03-23T14:56:07;0.57;;;0.20;;
33579;SDS011;19909;43.644;-79.438;2024-03-23T14:58:40;0.68;;;0.25;;
33579;SDS011;19909;43.644;-79.438;2024-03-23T15:01:08;0.40;;;0.20;;
33579;SDS011;19909;43.644;-79.438;2024-03-23T15:03:35;1.10;;;0.50;;
33579;SDS011;19909;43.644;-79.438;2024-03-23T15:06:04;0.55;;;0.28;;
33579;SDS011;19909;43.644;-79.438;2024-03-23T15:08:35;0.82;;;0.30;;
33579;SDS011;19909;43.644;-79.438;2024-03-23T15:11:08;0.80;;;0.50;;
33579;SDS011;19909;43.644;-79.438;2024-03-23T15:13:35;0.93;;;0.32;;
33579;SDS011;19909;43.644;-79.438;2024-03-23T15:16:03;1.27;;;0.30;;
33579;SDS011;19909;43.644;-79.438;2024-03-23T15:18:30;0.63;;;0.30;;
33579;SDS011;19909;43.644;-79.438;2024-03-23T15:20:58;1.38;;;0.40;;
33579;SDS011;19909;43.644;-79.438;2024-03-23T15:23:31;0.45;;;0.25;;
33579;SDS011;19909;43.644;-79.438;2024-03-23T15:25:58;0.40;;;0.30;;
33579;SDS011;19909;43.644;-79.438;2024-03-23T15:28:25;1.88;;;0.40;;
33579;SDS011;19909;43.644;-79.438;2024-03-23T15:31:06;0.77;;;0.32;;
33579;SDS011;19909;43.644;-79.438;2024-03-23T15:33:36;0.90;;;0.40;;
33579;SDS011;19909;43.644;-79.438;2024-03-23T15:36:05;0.55;;;0.40;;
33579;SDS011;19909;43.644;-79.438;2024-03-23T15:38:32;0.85;;;0.40;;